Flight Briefing for CPX308

Departure Arrival
Theodore Francis Green State Airport (KPVD)
Click to view FAA NOTAMS
Chicago/Rockford International Airport (KRFD)
Click to view FAA NOTAMS
Departure Time Arrival Time
N/A N/A
Aircraft Distance
B767-300BDSF 790nm
Departure METAR Arrival METAR
KPVD 230551Z AUTO 18006KT 10SM FEW120 11/07 A3027 RMK AO2 SLP251 T01060067 10122 20100 50002 KRFD 230559Z 21005KT 10SM -RA FEW008 SCT020 OVC036 18/18 A2985 RMK AO2 LTG DSNT NE-SE TSE57 OCNL LTGICCC DSNT NE-SE CB DSNT NE-SE MOV NE P0000 T01830178 $
Suggested Route
BAF HNK NUGNT DJB J60 JOT V171 RFD


View recent IFR Routes data
Notes



Charts and Procedures

Charts for KPVD
No chart available
Charts for KRFD
No chart available

Windy.com Weather Map